Terminal Aerodrome Forecast
Issued by NWS

Current Version | Previous Version | Graphics & Text | Print | Product List | Glossary On
Versions: 1 2 3 4 5 6 7 8 9 10 11 12 13 14 15 16 17 18 19 20 21 22
000
FTUS41 KRLX 232056 AAA
TAFCKB
TAF AMD
KCKB 232056Z 2321/2418 06007KT P6SM BKN150
     FM232300 08006KT P6SM BKN100
     FM240600 09004KT P6SM OVC070
     FM241300 08006KT P6SM OVC040=

USA.gov is the U.S. government's official web portal to all federal, state and local government web resources and services.